Time;durP1;ratioP1;P1;durP2;ratioP2;P2;SDS_P1;SDS_P2;PMS_P1;PMS_P2;Temp;Humidity;BMP_temperature;BMP_pressure;BME280_temperature;BME280_humidity;BME280_pressure;Samples;Min_cycle;Max_cycle;Signal;HPM_P1;HPM_P2
2022/04/22 00:01:55;;;;;;;;;;;;;;;20.89;36.18;100800.38;7281841;19;153344;-63
2022/04/22 00:04:22;;;;;;;;;;;;;;;20.90;36.15;100802.00;7283057;19;151635;-65
2022/04/22 00:06:48;;;;;;;;;;;;;;;20.90;35.93;100800.03;7281282;19;153955;-66
2022/04/22 00:09:15;;;;;;;;;;;;;;;20.87;35.83;100800.69;7287266;19;153408;-64
2022/04/22 00:11:42;;;;;;;;;;;;;;;20.85;35.91;100792.56;7281610;19;152839;-67
2022/04/22 00:14:08;;;;;;;;;;;;;;;20.85;35.69;100786.94;7278228;19;153644;-70
2022/04/22 00:16:35;;;;;;;;;;;;;;;20.85;36.12;100794.53;7280679;19;151693;-66
2022/04/22 00:19:02;;;;;;;;;;;;;;;20.84;35.82;100793.72;7281464;19;152475;-64
2022/04/22 00:21:29;;;;;;;;;;;;;;;20.83;35.74;100792.06;7281779;19;153886;-61
2022/04/22 00:23:55;;;;;;;;;;;;;;;20.82;36.08;100792.38;7282329;19;152706;-64
2022/04/22 00:26:22;;;;;;;;;;;;;;;20.79;36.00;100785.41;7282187;19;153504;-63
2022/04/22 00:28:49;;;;;;;;;;;;;;;20.80;36.10;100795.47;7281083;19;153331;-61
2022/04/22 00:31:15;;;;;;;;;;;;;;;20.79;36.12;100796.66;7288086;19;151605;-65
2022/04/22 00:33:42;;;;;;;;;;;;;;;20.78;36.03;100780.94;7278480;19;153465;-66
2022/04/22 00:36:09;;;;;;;;;;;;;;;20.79;35.85;100784.56;7280660;19;152020;-67
2022/04/22 00:38:36;;;;;;;;;;;;;;;20.77;35.83;100776.44;7281956;19;152713;-65
2022/04/22 00:41:03;;;;;;;;;;;;;;;20.76;35.81;100783.22;7280458;19;154125;-64
2022/04/22 00:43:39;;;;;;;;;;;;;;;20.77;35.78;100770.00;7281508;19;151801;-63
2022/04/22 00:46:06;;;;;;;;;;;;;;;20.72;35.81;100765.34;7279431;19;153320;-63
2022/04/22 00:48:33;;;;;;;;;;;;;;;20.73;36.01;100767.00;7280710;19;153519;-66
2022/04/22 00:51:00;;;;;;;;;;;;;;;20.74;36.34;100757.44;7285843;19;152171;-65
2022/04/22 00:53:27;;;;;;;;;;;;;;;20.73;35.95;100760.56;7292036;19;153664;-65
2022/04/22 00:55:54;;;;;;;;;;;;;;;20.72;36.20;100756.06;7287399;19;151725;-65
2022/04/22 00:58:21;;;;;;;;;;;;;;;20.72;36.36;100750.47;7285661;19;152816;-64
2022/04/22 01:00:48;;;;;;;;;;;;;;;20.69;35.98;100760.34;7285269;19;152098;-63
2022/04/22 01:03:14;;;;;;;;;;;;;;;20.70;35.95;100750.78;7285566;19;151918;-60
2022/04/22 01:09:47;;;;;;;;;;;;;;;20.71;36.31;100746.00;7284350;19;154369;-63
2022/04/22 01:11:31;;;;;;;;;;;;;;;20.69;36.17;100745.47;7286608;19;152491;-64
2022/04/22 01:14:07;;;;;;;;;;;;;;;20.71;35.96;100746.84;7285665;19;154359;-64
2022/04/22 01:16:34;;;;;;;;;;;;;;;20.68;35.96;100746.63;7291731;19;151897;-66
2022/04/22 01:19:00;;;;;;;;;;;;;;;20.66;36.06;100737.69;7287591;19;152420;-64
2022/04/22 01:21:27;;;;;;;;;;;;;;;20.65;36.45;100736.88;7286571;19;153310;-64
2022/04/22 01:23:54;;;;;;;;;;;;;;;20.64;36.17;100732.38;7285047;19;153269;-62
2022/04/22 01:26:20;;;;;;;;;;;;;;;20.65;36.22;100736.88;7287821;19;153996;-64
2022/04/22 01:28:47;;;;;;;;;;;;;;;20.63;36.02;100730.72;7282778;19;154068;-67
2022/04/22 01:31:14;;;;;;;;;;;;;;;20.63;36.32;100732.69;7285565;19;152029;-64
2022/04/22 01:33:41;;;;;;;;;;;;;;;20.63;36.24;100724.28;7285880;19;153510;-63
2022/04/22 01:36:08;;;;;;;;;;;;;;;20.63;36.29;100719.50;7286635;19;153395;-64
2022/04/22 01:38:35;;;;;;;;;;;;;;;20.62;36.40;100722.63;7294056;19;152171;-64
2022/04/22 01:41:02;;;;;;;;;;;;;;;20.58;36.17;100714.00;7253629;19;153934;-66
2022/04/22 01:43:29;;;;;;;;;;;;;;;20.58;36.20;100713.19;7282284;19;152131;-65
2022/04/22 01:45:55;;;;;;;;;;;;;;;20.59;36.31;100710.03;7283371;19;152221;-64
2022/04/22 01:48:22;;;;;;;;;;;;;;;20.57;36.20;100717.97;7283246;19;154767;-63
2022/04/22 01:50:49;;;;;;;;;;;;;;;20.57;36.35;100714.31;7286278;19;151786;-66
2022/04/22 01:53:16;;;;;;;;;;;;;;;20.56;36.28;100719.09;7286446;19;152825;-65
2022/04/22 01:55:43;;;;;;;;;;;;;;;20.55;36.41;100719.41;7283004;19;154602;-66
2022/04/22 01:58:09;;;;;;;;;;;;;;;20.53;36.31;100716.94;7293799;19;151982;-64
2022/04/22 02:00:36;;;;;;;;;;;;;;;20.54;36.36;100712.97;7284173;19;153674;-65
2022/04/22 02:03:02;;;;;;;;;;;;;;;20.53;36.43;100714.13;7285335;19;152111;-66
2022/04/22 02:05:29;;;;;;;;;;;;;;;20.51;36.64;100713.59;7285838;19;155044;-65
2022/04/22 02:07:56;;;;;;;;;;;;;;;20.52;36.15;100708.81;7282549;19;153994;-63
2022/04/22 02:10:23;;;;;;;;;;;;;;;20.49;36.39;100707.44;7286480;19;152046;-65
2022/04/22 02:12:49;;;;;;;;;;;;;;;20.49;36.57;100699.03;7283517;19;153049;-66
2022/04/22 02:15:18;;;;;;;;;;;;;;;20.49;36.67;100701.84;7283113;19;153935;-66
2022/04/22 02:17:45;;;;;;;;;;;;;;;20.52;36.45;100703.22;7284697;19;151928;-66
2022/04/22 02:20:12;;;;;;;;;;;;;;;20.48;36.66;100699.38;7290178;19;153191;-66
2022/04/22 02:22:39;;;;;;;;;;;;;;;20.47;36.29;100697.69;7284628;19;152171;-63
2022/04/22 02:25:06;;;;;;;;;;;;;;;20.47;36.63;100695.72;7283540;19;153499;-65
2022/04/22 02:30:19;;;;;;;;;;;;;;;20.45;36.77;100691.56;7264962;19;152034;-62
2022/04/22 02:32:46;;;;;;;;;;;;;;;20.42;36.37;100688.25;7276988;19;155106;-68
2022/04/22 02:35:13;;;;;;;;;;;;;;;20.42;36.86;100693.88;7283431;19;153176;-66
2022/04/22 02:37:40;;;;;;;;;;;;;;;20.43;36.54;100691.91;7285141;19;152180;-63
2022/04/22 02:40:07;;;;;;;;;;;;;;;20.43;36.72;100683.47;7284214;19;154252;-61
2022/04/22 02:45:28;;;;;;;;;;;;;;;20.39;36.90;100688.88;7284390;19;152799;-63
2022/04/22 02:47:56;;;;;;;;;;;;;;;20.38;36.67;100690.03;7282533;19;153939;-65
2022/04/22 02:50:23;;;;;;;;;;;;;;;20.40;36.61;100686.88;7284279;19;152410;-62
2022/04/22 02:52:50;;;;;;;;;;;;;;;20.38;36.76;100678.81;7284888;19;152630;-63
2022/04/22 02:55:16;;;;;;;;;;;;;;;20.39;36.83;100688.06;7283329;19;153407;-64
2022/04/22 02:57:44;;;;;;;;;;;;;;;20.34;36.59;100686.19;7283069;19;151823;-62
2022/04/22 03:00:12;;;;;;;;;;;;;;;20.38;36.69;100683.56;7280784;19;153882;-63
2022/04/22 03:02:39;;;;;;;;;;;;;;;20.34;36.76;100677.78;7283911;19;153478;-65
2022/04/22 03:05:06;;;;;;;;;;;;;;;20.35;37.00;100676.59;7291946;19;151631;-64
2022/04/22 03:07:33;;;;;;;;;;;;;;;20.33;37.11;100672.47;7283001;19;154117;-64
2022/04/22 03:10:00;;;;;;;;;;;;;;;20.35;36.97;100667.38;7283472;19;151745;-64
2022/04/22 03:12:26;;;;;;;;;;;;;;;20.33;36.97;100669.66;7281860;19;153946;-68
2022/04/22 03:14:53;;;;;;;;;;;;;;;20.31;36.86;100660.72;7280063;19;153872;-62
2022/04/22 03:17:20;;;;;;;;;;;;;;;20.32;36.99;100653.97;7283569;19;151944;-64
2022/04/22 03:19:46;;;;;;;;;;;;;;;20.31;37.08;100663.50;7285020;19;152828;-67
2022/04/22 03:22:13;;;;;;;;;;;;;;;20.33;37.22;100655.63;7282552;19;154515;-66
2022/04/22 03:24:42;;;;;;;;;;;;;;;20.32;36.89;100656.75;7282275;19;152023;-66
2022/04/22 03:27:10;;;;;;;;;;;;;;;20.29;37.14;100654.56;7290059;19;153601;-63
2022/04/22 03:29:36;;;;;;;;;;;;;;;20.28;37.33;100645.31;7281201;19;152357;-68
2022/04/22 03:32:05;;;;;;;;;;;;;;;20.27;37.24;100656.84;7250446;19;154886;-68
2022/04/22 03:34:32;;;;;;;;;;;;;;;20.31;37.23;100641.91;7274331;19;154551;-67
2022/04/22 03:36:59;;;;;;;;;;;;;;;20.29;36.87;100640.53;7277000;19;154265;-63
2022/04/22 03:39:26;;;;;;;;;;;;;;;20.26;37.20;100638.38;7282549;19;152766;-66
2022/04/22 03:41:52;;;;;;;;;;;;;;;20.25;37.10;100634.72;7278753;19;153619;-62
2022/04/22 03:44:19;;;;;;;;;;;;;;;20.24;37.20;100630.25;7276794;19;151960;-62
2022/04/22 03:46:46;;;;;;;;;;;;;;;20.23;37.29;100638.97;7279844;19;153295;-63
2022/04/22 03:49:12;;;;;;;;;;;;;;;20.21;37.06;100639.31;7287047;19;151888;-64
2022/04/22 03:51:39;;;;;;;;;;;;;;;20.21;37.11;100638.47;7283148;19;152087;-64
2022/04/22 03:54:06;;;;;;;;;;;;;;;20.20;37.18;100632.03;7281182;19;153750;-66
2022/04/22 03:59:18;;;;;;;;;;;;;;;20.19;37.51;100624.75;7282855;19;153327;-64
2022/04/22 04:01:44;;;;;;;;;;;;;;;20.18;37.30;100611.03;7281235;19;153296;-67
2022/04/22 04:04:13;;;;;;;;;;;;;;;20.19;37.39;100609.91;7284473;19;151982;-66
2022/04/22 04:06:40;;;;;;;;;;;;;;;20.19;37.33;100609.91;7282474;19;153279;-66
2022/04/22 04:17:22;;;;;;;;;;;;;;;20.17;37.29;100612.22;7281880;19;152187;-62
2022/04/22 04:25:27;;;;;;;;;;;;;;;20.13;37.40;100606.38;7289689;19;151877;-63
2022/04/22 04:27:54;;;;;;;;;;;;;;;20.13;37.77;100602.72;7286786;19;152907;-62
2022/04/22 04:30:21;;;;;;;;;;;;;;;20.13;37.48;100597.13;7268013;19;154217;-65
2022/04/22 04:32:47;;;;;;;;;;;;;;;20.11;37.52;100597.47;7287130;19;152054;-65
2022/04/22 04:35:14;;;;;;;;;;;;;;;20.11;37.76;100596.63;7286519;19;153553;-65
2022/04/22 04:37:41;;;;;;;;;;;;;;;20.11;37.69;100597.47;7290265;19;152034;-65
2022/04/22 04:40:09;;;;;;;;;;;;;;;20.09;37.50;100584.88;7288764;19;152705;-67
2022/04/22 04:42:35;;;;;;;;;;;;;;;20.09;37.72;100580.09;7286617;19;153994;-63
2022/04/22 04:45:03;;;;;;;;;;;;;;;20.10;37.96;100589.34;7283519;19;151840;-66
2022/04/22 04:47:31;;;;;;;;;;;;;;;20.08;38.03;100586.03;7288416;19;153444;-65
2022/04/22 04:49:57;;;;;;;;;;;;;;;20.09;37.93;100590.47;7282470;19;153240;-64
2022/04/22 04:52:24;;;;;;;;;;;;;;;20.08;37.94;100592.44;7288181;19;151969;-64
2022/04/22 04:54:51;;;;;;;;;;;;;;;20.07;37.67;100585.22;7293489;19;154672;-62
2022/04/22 04:57:19;;;;;;;;;;;;;;;20.07;38.11;100578.78;7285900;19;152149;-66
2022/04/22 04:59:46;;;;;;;;;;;;;;;20.07;37.96;100578.78;7287202;19;151939;-64
2022/04/22 05:02:12;;;;;;;;;;;;;;;20.06;37.93;100577.94;7286093;19;153607;-63
2022/04/22 05:04:39;;;;;;;;;;;;;;;20.06;38.12;100579.91;7286540;19;152031;-68
2022/04/22 05:07:06;;;;;;;;;;;;;;;20.07;38.01;100573.16;7287330;19;153037;-66
2022/04/22 05:09:33;;;;;;;;;;;;;;;20.05;38.14;100572.63;7284583;19;154285;-65
2022/04/22 05:11:59;;;;;;;;;;;;;;;20.04;38.10;100571.78;7287864;19;151763;-65
2022/04/22 05:14:26;;;;;;;;;;;;;;;20.04;37.85;100562.53;7285937;19;152888;-65
2022/04/22 05:16:56;;;;;;;;;;;;;;;20.03;38.29;100566.53;7293393;19;153886;-64
2022/04/22 05:19:23;;;;;;;;;;;;;;;20.03;37.92;100567.34;7286998;19;153286;-66
2022/04/22 05:21:50;;;;;;;;;;;;;;;20.02;37.90;100571.28;7285945;19;153345;-66
2022/04/22 05:24:17;;;;;;;;;;;;;;;20.01;37.88;100568.78;7287715;19;152240;-65
2022/04/22 05:26:44;;;;;;;;;;;;;;;20.01;38.35;100574.41;7286860;19;154920;-64
2022/04/22 05:32:36;;;;;;;;;;;;;;;20.02;38.31;100564.84;7284736;19;153804;-66
2022/04/22 05:34:43;;;;;;;;;;;;;;;19.99;38.45;100572.75;7285342;19;155118;-64
2022/04/22 05:37:10;;;;;;;;;;;;;;;19.99;38.12;100571.91;7285159;19;155181;-67
2022/04/22 05:39:47;;;;;;;;;;;;;;;19.99;38.42;100569.94;7293687;19;151848;-67
2022/04/22 05:42:26;;;;;;;;;;;;;;;19.98;38.18;100568.28;7286737;19;154756;-67
2022/04/22 05:44:53;;;;;;;;;;;;;;;19.99;38.33;100572.75;7288271;19;151926;-67
2022/04/22 05:47:20;;;;;;;;;;;;;;;19.99;38.28;100567.13;7285408;19;152736;-63
2022/04/22 05:49:47;;;;;;;;;;;;;;;19.97;38.46;100563.81;7282694;19;153453;-68
2022/04/22 05:52:13;;;;;;;;;;;;;;;20.01;38.66;100574.41;7287127;19;151751;-64
2022/04/22 05:54:45;;;;;;;;;;;;;;;19.96;38.69;100573.38;7285749;19;152107;-67
2022/04/22 05:57:11;;;;;;;;;;;;;;;19.95;38.31;100579.28;7283623;19;154534;-66
2022/04/22 05:59:38;;;;;;;;;;;;;;;19.95;38.68;100574.50;7291716;19;153521;-64
2022/04/22 06:02:05;;;;;;;;;;;;;;;19.99;38.39;100577.50;7283100;19;154242;-65
2022/04/22 06:04:32;;;;;;;;;;;;;;;19.97;38.59;100575.03;7285583;19;152315;-65
2022/04/22 06:06:59;;;;;;;;;;;;;;;19.94;38.47;100575.66;7286191;19;153506;-66
2022/04/22 06:12:13;;;;;;;;;;;;;;;19.95;38.75;100580.13;7285999;19;152042;-65
2022/04/22 06:14:40;;;;;;;;;;;;;;;19.94;38.76;100580.44;7283736;19;152503;-68
2022/04/22 06:17:06;;;;;;;;;;;;;;;19.92;38.53;100582.72;7284247;19;153176;-66
2022/04/22 06:19:33;;;;;;;;;;;;;;;19.94;38.76;100580.44;7286088;19;152219;-63
2022/04/22 06:22:00;;;;;;;;;;;;;;;19.93;38.71;100585.22;7291928;19;153348;-67
2022/04/22 06:24:26;;;;;;;;;;;;;;;19.95;38.85;100585.72;7286313;19;151708;-65
2022/04/22 06:26:53;;;;;;;;;;;;;;;19.94;38.61;100583.25;7285051;19;153332;-66
2022/04/22 06:29:20;;;;;;;;;;;;;;;19.95;38.81;100585.72;7283520;19;154152;-65
2022/04/22 06:31:47;;;;;;;;;;;;;;;19.93;39.07;100579.63;7285352;19;153231;-68
2022/04/22 06:34:14;;;;;;;;;;;;;;;19.93;38.85;100579.63;7285858;19;152774;-65
2022/04/22 06:36:41;;;;;;;;;;;;;;;19.92;38.98;100577.94;7283630;19;153962;-66
2022/04/22 06:39:08;;;;;;;;;;;;;;;19.92;39.21;100577.94;7283374;19;152400;-64
2022/04/22 06:47:05;;;;;;;;;;;;;;;19.91;38.92;100575.44;7285753;19;153019;-63
2022/04/22 06:49:32;;;;;;;;;;;;;;;19.90;39.27;100566.22;7281985;19;152487;-60
2022/04/22 06:52:00;;;;;;;;;;;;;;;19.90;39.36;100563.41;7285538;19;151812;-63
2022/04/22 06:54:27;;;;;;;;;;;;;;;19.92;39.33;100568.72;7284352;19;152678;-62
2022/04/22 06:56:54;;;;;;;;;;;;;;;19.91;39.19;100562.25;7283959;19;153871;-63
2022/04/22 06:59:29;;;;;;;;;;;;;;;19.91;39.40;100553.03;7284569;19;151869;-64
2022/04/22 07:01:56;;;;;;;;;;;;;;;19.89;39.34;100560.94;7285264;19;152700;-62
2022/04/22 07:04:24;;;;;;;;;;;;;;;19.92;39.08;100555.53;7282615;19;153940;-66
2022/04/22 07:06:51;;;;;;;;;;;;;;;19.90;39.03;100556.97;7292721;19;152044;-66
2022/04/22 07:09:18;;;;;;;;;;;;;;;19.93;39.14;100562.78;7281501;19;152450;-60
2022/04/22 07:11:45;;;;;;;;;;;;;;;19.93;39.09;100551.56;7284453;19;152008;-65
2022/04/22 07:14:12;;;;;;;;;;;;;;;19.94;39.01;100558.81;7280268;19;152731;-63
2022/04/22 07:16:43;;;;;;;;;;;;;;;19.92;39.40;100554.69;7282634;19;154323;-65
2022/04/22 07:19:10;;;;;;;;;;;;;;;19.94;39.13;100556.03;7281845;19;152171;-67
2022/04/22 07:21:37;;;;;;;;;;;;;;;19.93;39.48;100548.78;7283990;19;153348;-68
2022/04/22 07:24:04;;;;;;;;;;;;;;;19.93;39.25;100553.56;7282402;19;154404;-65
2022/04/22 07:26:37;;;;;;;;;;;;;;;19.92;39.54;100552.72;7283800;19;151932;-67
2022/04/22 07:29:05;;;;;;;;;;;;;;;19.92;39.37;100546.28;7289573;19;153254;-66
2022/04/22 07:31:32;;;;;;;;;;;;;;;19.92;39.16;100543.47;7283436;19;151829;-67
2022/04/22 07:34:00;;;;;;;;;;;;;;;19.90;39.19;100546.59;7283729;19;153115;-64
2022/04/22 07:36:29;;;;;;;;;;;;;;;19.93;39.09;100545.97;7281549;19;154211;-67
2022/04/22 07:39:03;;;;;;;;;;;;;;;19.93;39.09;100545.97;7283459;19;151895;-63
2022/04/22 07:41:31;;;;;;;;;;;;;;;19.92;39.59;100537.88;7283212;19;153026;-65
2022/04/22 07:46:58;;;;;;;;;;;;;;;19.93;39.28;100542.34;7284151;19;151860;-64
2022/04/22 07:49:26;;;;;;;;;;;;;;;19.96;39.50;100548.13;7282996;19;153585;-65
2022/04/22 07:51:53;;;;;;;;;;;;;;;19.95;39.24;100548.44;7290891;19;153287;-62
2022/04/22 07:54:24;;;;;;;;;;;;;;;19.99;39.12;100544.69;7282842;19;153377;-65
2022/04/22 07:56:52;;;;;;;;;;;;;;;19.98;39.48;100543.06;7281084;19;154914;-66
2022/04/22 07:59:20;;;;;;;;;;;;;;;19.98;39.28;100539.41;7282841;19;152089;-65
2022/04/22 08:01:47;;;;;;;;;;;;;;;19.99;39.15;100538.25;7281226;19;155483;-61
2022/04/22 08:04:16;;;;;;;;;;;;;;;19.94;39.35;100544.81;7280446;19;154059;-64
2022/04/22 08:06:43;;;;;;;;;;;;;;;19.95;39.19;100545.63;7282582;19;151848;-65
2022/04/22 08:09:29;;;;;;;;;;;;;;;19.97;39.21;100532.16;7283329;19;154426;-67
2022/04/22 08:11:56;;;;;;;;;;;;;;;19.94;39.68;100538.41;7289388;19;153294;-64
2022/04/22 08:14:24;;;;;;;;;;;;;;;19.97;39.65;100529.34;7280050;19;152866;-64
2022/04/22 08:16:51;;;;;;;;;;;;;;;19.97;39.17;100547.00;7281877;19;154009;-64
2022/04/22 08:19:18;;;;;;;;;;;;;;;19.98;39.32;100531.00;7283853;19;152484;-65
2022/04/22 08:21:48;;;;;;;;;;;;;;;19.97;39.28;100529.34;7282485;19;152609;-64
2022/04/22 08:24:15;;;;;;;;;;;;;;;19.98;39.59;100536.63;7281050;19;154492;-63
2022/04/22 08:26:45;;;;;;;;;;;;;;;19.98;39.32;100536.63;7282406;19;151950;-65
2022/04/22 08:29:17;;;;;;;;;;;;;;;19.99;39.19;100538.25;7280314;19;152335;-63
2022/04/22 08:31:44;;;;;;;;;;;;;;;19.99;39.19;100533.47;7281418;19;154340;-67
2022/04/22 08:34:11;;;;;;;;;;;;;;;19.97;39.19;100535.78;7288388;19;154620;-65
2022/04/22 08:36:38;;;;;;;;;;;;;;;19.98;39.52;100531.00;7281171;19;153791;-63
2022/04/22 08:39:05;;;;;;;;;;;;;;;19.96;39.13;100528.50;7282450;19;152249;-68
2022/04/22 08:41:35;;;;;;;;;;;;;;;19.94;39.12;100533.59;7282264;19;153489;-66
2022/04/22 08:44:02;;;;;;;;;;;;;;;19.96;39.35;100520.09;7281125;19;154211;-62
2022/04/22 08:52:02;;;;;;;;;;;;;;;19.92;39.60;100521.88;7280814;19;153079;-62
2022/04/22 08:54:29;;;;;;;;;;;;;;;19.96;39.20;100517.28;7281563;19;152451;-66
2022/04/22 08:56:56;;;;;;;;;;;;;;;19.95;39.54;100520.41;7287824;19;152607;-65
2022/04/22 08:59:25;;;;;;;;;;;;;;;19.93;39.51;100512.31;7279553;19;151840;-66
2022/04/22 09:01:55;;;;;;;;;;;;;;;19.94;39.17;100515.97;7281622;19;154309;-63
2022/04/22 09:04:22;;;;;;;;;;;;;;;19.95;39.60;100512.00;7280071;19;153765;-65
2022/04/22 09:06:50;;;;;;;;;;;;;;;19.94;39.20;100515.97;7281319;19;152193;-63
2022/04/22 09:09:18;;;;;;;;;;;;;;;19.93;39.75;100515.13;7283165;19;152578;-62
2022/04/22 09:11:45;;;;;;;;;;;;;;;19.93;39.51;100517.94;7284247;19;153336;-61
2022/04/22 09:14:19;;;;;;;;;;;;;;;19.95;39.50;100529.66;7285796;19;151815;-65
2022/04/22 09:16:52;;;;;;;;;;;;;;;19.94;39.45;100525.19;7287408;19;153679;-66
2022/04/22 09:19:20;;;;;;;;;;;;;;;19.95;39.21;100518.44;7294100;19;154234;-65
2022/04/22 09:21:57;;;;;;;;;;;;;;;19.97;39.23;100530.19;7285554;19;153657;-61
2022/04/22 09:24:24;;;;;;;;;;;;;;;19.95;39.23;100515.63;7286914;19;153486;-64
2022/04/22 09:27:10;;;;;;;;;;;;;;;19.99;39.15;100515.81;7287049;19;152123;-65
2022/04/22 09:29:41;;;;;;;;;;;;;;;20.02;39.53;100508.78;7287159;19;153088;-63
2022/04/22 09:32:09;;;;;;;;;;;;;;;20.04;39.08;100507.28;7285677;19;153833;-65
2022/04/22 09:34:39;;;;;;;;;;;;;;;20.02;39.64;100503.16;7287438;19;151986;-65
2022/04/22 09:42:48;;;;;;;;;;;;;;;19.98;39.67;100515.00;7294476;19;152322;-64
2022/04/22 09:45:15;;;;;;;;;;;;;;;19.98;39.22;100506.59;7286017;19;153691;-61
2022/04/22 09:47:42;;;;;;;;;;;;;;;19.98;39.18;100503.81;7286465;19;152048;-64
2022/04/22 09:50:14;;;;;;;;;;;;;;;19.99;39.52;100504.59;7285425;19;152206;-64
2022/04/22 09:52:47;;;;;;;;;;;;;;;19.96;39.21;100506.06;7286408;19;153611;-63
2022/04/22 09:55:16;;;;;;;;;;;;;;;19.96;39.21;100494.84;7286874;19;151811;-60
2022/04/22 09:57:49;;;;;;;;;;;;;;;19.94;39.60;100501.94;7286966;19;153176;-65
2022/04/22 10:00:16;;;;;;;;;;;;;;;19.95;39.51;100503.56;7285739;19;153617;-64
2022/04/22 10:02:43;;;;;;;;;;;;;;;19.93;39.69;100506.72;7286982;19;152376;-61
2022/04/22 10:05:11;;;;;;;;;;;;;;;19.94;39.71;100510.34;7292985;19;151724;-64
2022/04/22 10:07:42;;;;;;;;;;;;;;;19.94;39.39;100491.53;7286415;19;151734;-66
2022/04/22 10:10:10;;;;;;;;;;;;;;;19.94;39.32;100508.34;7285741;19;153194;-66
2022/04/22 10:12:37;;;;;;;;;;;;;;;19.92;39.22;100501.41;7284005;19;154252;-68
2022/04/22 10:15:06;;;;;;;;;;;;;;;19.95;39.67;100504.41;7286114;19;152089;-66
2022/04/22 10:17:34;;;;;;;;;;;;;;;19.97;39.21;100504.09;7284640;19;152930;-67
2022/04/22 10:20:01;;;;;;;;;;;;;;;19.96;39.50;100497.66;7284044;19;155666;-65
2022/04/22 10:22:31;;;;;;;;;;;;;;;19.95;39.30;100495.16;7286328;19;151745;-63
2022/04/22 10:24:58;;;;;;;;;;;;;;;19.98;39.62;100502.97;7290688;19;153479;-65
2022/04/22 10:27:25;;;;;;;;;;;;;;;19.95;39.63;100498.81;7285528;19;152088;-66
2022/04/22 10:29:52;;;;;;;;;;;;;;;19.94;39.73;100494.34;7286052;19;152856;-66
2022/04/22 10:32:20;;;;;;;;;;;;;;;19.97;39.31;100506.91;7282467;19;153423;-62
2022/04/22 10:34:55;;;;;;;;;;;;;;;20.03;39.38;100499.22;7285464;19;151978;-63
2022/04/22 10:37:31;;;;;;;;;;;;;;;20.03;39.57;100493.59;7285603;19;153163;-61
2022/04/22 10:39:58;;;;;;;;;;;;;;;20.02;39.39;100494.75;7284331;19;153207;-63
2022/04/22 10:42:43;;;;;;;;;;;;;;;20.02;39.83;100500.34;7286180;19;152243;-63
2022/04/22 10:47:57;;;;;;;;;;;;;;;19.99;39.79;100480.19;7290539;19;156186;-66
2022/04/22 10:50:30;;;;;;;;;;;;;;;20.00;39.81;100489.44;7285158;19;153788;-67
2022/04/22 10:53:08;;;;;;;;;;;;;;;20.01;39.78;100490.28;7284188;19;153272;-68
2022/04/22 10:55:46;;;;;;;;;;;;;;;20.03;39.55;100494.44;7285049;19;151753;-65
2022/04/22 10:58:33;;;;;;;;;;;;;;;20.03;39.31;100482.38;7285093;19;156153;-63
2022/04/22 11:01:00;;;;;;;;;;;;;;;20.01;39.46;100477.09;7281334;19;155036;-62
2022/04/22 11:03:34;;;;;;;;;;;;;;;20.00;39.70;100478.22;7284554;19;151969;-68
2022/04/22 11:06:02;;;;;;;;;;;;;;;20.01;39.58;100474.28;7282519;19;153327;-68
2022/04/22 11:08:31;;;;;;;;;;;;;;;20.01;39.29;100468.69;7283664;19;154953;-63
2022/04/22 11:11:13;;;;;;;;;;;;;;;20.02;39.20;100470.34;7290763;19;151956;-63
2022/04/22 11:13:41;;;;;;;;;;;;;;;20.02;39.75;100469.50;7281387;19;154346;-63
2022/04/22 11:16:15;;;;;;;;;;;;;;;20.03;39.67;100463.59;7285313;19;152025;-62
2022/04/22 11:18:44;;;;;;;;;;;;;;;20.04;39.53;100465.22;7283269;19;153060;-67
2022/04/22 11:21:13;;;;;;;;;;;;;;;20.06;39.39;100460.16;7283876;19;154246;-65
2022/04/22 11:23:44;;;;;;;;;;;;;;;20.05;39.64;100460.44;7283113;19;151988;-63
2022/04/22 11:26:15;;;;;;;;;;;;;;;20.06;39.29;100459.31;7284194;19;153775;-63
2022/04/22 11:28:46;;;;;;;;;;;;;;;20.08;39.44;100454.22;7280096;19;153408;-65
2022/04/22 11:31:14;;;;;;;;;;;;;;;20.13;39.22;100451.28;7282557;19;152139;-61
2022/04/22 11:33:56;;;;;;;;;;;;;;;20.11;39.27;100453.59;7288426;19;153536;-67
2022/04/22 11:36:24;;;;;;;;;;;;;;;20.13;39.69;100459.69;7283613;19;151805;-64
2022/04/22 11:38:56;;;;;;;;;;;;;;;20.12;39.29;100452.44;7283351;19;152094;-64
2022/04/22 11:41:23;;;;;;;;;;;;;;;20.13;39.27;100448.47;7282547;19;152446;-65
2022/04/22 11:43:50;;;;;;;;;;;;;;;20.11;39.25;100446.00;7281552;19;152002;-66
2022/04/22 11:46:18;;;;;;;;;;;;;;;20.13;39.41;100448.47;7284305;19;152680;-67
2022/04/22 11:48:53;;;;;;;;;;;;;;;20.11;39.29;100445.16;7278556;19;154758;-65
2022/04/22 11:51:20;;;;;;;;;;;;;;;20.11;39.23;100439.56;7282114;19;152298;-63
2022/04/22 11:53:47;;;;;;;;;;;;;;;20.12;39.17;100447.66;7284454;19;153832;-67
2022/04/22 11:56:21;;;;;;;;;;;;;;;20.11;39.65;100450.78;7291832;19;154223;-66
2022/04/22 11:58:52;;;;;;;;;;;;;;;20.10;39.15;100438.72;7283574;19;153427;-65
2022/04/22 12:06:57;;;;;;;;;;;;;;;20.06;39.58;100442.47;7282634;19;152136;-68
2022/04/22 12:09:25;;;;;;;;;;;;;;;20.10;39.19;100444.34;7281701;19;153491;-66
2022/04/22 12:11:52;;;;;;;;;;;;;;;20.09;39.09;100441.84;7280300;19;151890;-65
2022/04/22 12:14:24;;;;;;;;;;;;;;;20.07;39.37;100441.34;7280360;19;153310;-66
2022/04/22 12:16:58;;;;;;;;;;;;;;;20.07;39.37;100430.97;7281501;19;153328;-66
2022/04/22 12:19:26;;;;;;;;;;;;;;;20.10;39.17;100427.50;7290399;19;151531;-64
2022/04/22 12:21:53;;;;;;;;;;;;;;;20.07;39.13;100433.75;7282443;19;153200;-64
2022/04/22 12:24:23;;;;;;;;;;;;;;;20.07;39.30;100427.31;7282658;19;153194;-65
2022/04/22 12:26:51;;;;;;;;;;;;;;;20.06;39.53;100426.50;7282573;19;152500;-64
2022/04/22 12:29:20;;;;;;;;;;;;;;;20.05;39.48;100427.63;7281504;19;155975;-65
2022/04/22 12:31:53;;;;;;;;;;;;;;;20.03;39.52;100426.31;7278627;19;151626;-62
2022/04/22 12:34:30;;;;;;;;;;;;;;;20.04;39.21;100436.34;7282194;19;153859;-64
2022/04/22 12:37:00;;;;;;;;;;;;;;;20.03;39.43;100434.72;7280560;19;153141;-63
2022/04/22 12:39:33;;;;;;;;;;;;;;;20.04;39.34;100411.94;7290056;19;151929;-63
2022/04/22 12:42:01;;;;;;;;;;;;;;;20.03;39.41;100423.50;7281785;19;153367;-61
2022/04/22 12:44:27;;;;;;;;;;;;;;;20.02;39.22;100411.44;7284761;19;152115;-65
2022/04/22 12:52:45;;;;;;;;;;;;;;;20.09;39.21;100400.59;7287108;19;151968;-65
2022/04/22 12:55:16;;;;;;;;;;;;;;;20.10;38.99;100405.06;7288325;19;153761;-65
2022/04/22 12:57:42;;;;;;;;;;;;;;;20.09;39.13;100403.41;7285120;19;153349;-64
2022/04/22 13:00:17;;;;;;;;;;;;;;;20.13;38.94;100397.97;7288081;19;151899;-67
2022/04/22 13:03:04;;;;;;;;;;;;;;;20.15;39.17;100392.91;7292411;19;152610;-65
2022/04/22 13:05:32;;;;;;;;;;;;;;;20.15;38.98;100395.69;7288081;19;151586;-64
2022/04/22 13:08:07;;;;;;;;;;;;;;;20.17;38.77;100382.19;7285688;19;153333;-65
2022/04/22 13:10:34;;;;;;;;;;;;;;;20.19;38.83;100388.31;7283983;19;153240;-67
2022/04/22 13:13:08;;;;;;;;;;;;;;;20.18;38.66;100389.44;7285195;19;151829;-63
2022/04/22 13:15:35;;;;;;;;;;;;;;;20.17;38.92;100401.84;7287530;19;153529;-67
2022/04/22 13:18:02;;;;;;;;;;;;;;;20.18;38.57;100401.50;7285900;19;154174;-62
2022/04/22 13:20:32;;;;;;;;;;;;;;;20.17;38.64;100388.59;7285135;19;152468;-64
2022/04/22 13:22:59;;;;;;;;;;;;;;;20.19;39.01;100388.31;7287315;19;152578;-64
2022/04/22 13:25:26;;;;;;;;;;;;;;;20.18;38.81;100390.28;7293083;19;154162;-62
2022/04/22 13:27:53;;;;;;;;;;;;;;;20.21;38.90;100378.44;7286862;19;152642;-65
2022/04/22 13:30:20;;;;;;;;;;;;;;;20.21;38.63;100391.63;7285694;19;154214;-63
2022/04/22 13:32:47;;;;;;;;;;;;;;;20.20;38.50;100385.19;7284904;19;151979;-64
2022/04/22 13:35:14;;;;;;;;;;;;;;;20.20;38.53;100390.78;7284723;19;153698;-67
2022/04/22 13:37:40;;;;;;;;;;;;;;;20.20;38.71;100381.56;7285712;19;153455;-65
2022/04/22 13:40:08;;;;;;;;;;;;;;;20.21;38.70;100363.59;7286299;19;152091;-65